createdAt,value
2023-11-25T00:02:13.055Z,100793.60
2023-11-25T00:04:41.106Z,100803.32
2023-11-25T00:07:09.119Z,100805.28
2023-11-25T00:09:37.026Z,100810.64
2023-11-25T00:12:05.111Z,100814.80
2023-11-25T00:14:33.161Z,100810.80
2023-11-25T00:17:01.145Z,100817.67
2023-11-25T00:19:29.281Z,100808.91
2023-11-25T00:21:57.672Z,100818.36
2023-11-25T00:24:25.583Z,100810.84
2023-11-25T00:26:53.547Z,100816.92
2023-11-25T00:29:21.597Z,100815.77
2023-11-25T00:31:51.586Z,100827.48
2023-11-25T00:34:19.569Z,100833.56
2023-11-25T00:36:48.170Z,100827.58
2023-11-25T00:39:17.623Z,100823.66
2023-11-25T00:41:45.678Z,100832.65
2023-11-25T00:44:13.990Z,100833.56
2023-11-25T00:46:42.089Z,100821.50
2023-11-25T00:49:11.170Z,100813.52
2023-11-25T00:51:42.384Z,100805.38
2023-11-25T00:54:10.807Z,100808.58
2023-11-25T00:56:38.733Z,100813.81
2023-11-25T00:59:06.677Z,100815.84
2023-11-25T01:01:36.686Z,100817.05
2023-11-25T01:04:06.124Z,100831.63
2023-11-25T01:06:34.076Z,100832.06
2023-11-25T01:09:02.152Z,100831.77
2023-11-25T01:11:30.101Z,100838.14
2023-11-25T01:13:58.016Z,100831.34
2023-11-25T01:16:27.396Z,100832.59
2023-11-25T01:18:55.565Z,100824.08
2023-11-25T01:21:23.496Z,100836.64
2023-11-25T01:23:51.436Z,100835.00
2023-11-25T01:26:19.985Z,100828.56
2023-11-25T01:28:48.142Z,100833.34
2023-11-25T01:31:16.867Z,100825.69
2023-11-25T01:33:44.869Z,100839.35
2023-11-25T01:36:13.970Z,100842.55
2023-11-25T01:38:42.314Z,100843.70
2023-11-25T01:41:10.325Z,100842.49
2023-11-25T01:43:39.579Z,100840.40
2023-11-25T01:46:09.432Z,100837.59
2023-11-25T01:48:37.686Z,100846.48
2023-11-25T01:51:08.220Z,100842.36
2023-11-25T01:53:36.617Z,100845.99
2023-11-25T01:56:04.882Z,100860.90
2023-11-25T01:58:34.818Z,100847.98
2023-11-25T02:01:02.991Z,100864.17
2023-11-25T02:03:30.905Z,100859.66
2023-11-25T02:05:58.850Z,100855.54
2023-11-25T02:08:26.920Z,100859.95
2023-11-25T02:10:55.115Z,100860.77
2023-11-25T02:13:27.318Z,100867.18
2023-11-25T02:15:56.944Z,100868.81
2023-11-25T02:18:25.206Z,100870.41
2023-11-25T02:20:53.877Z,100870.32
2023-11-25T02:23:25.152Z,100871.92
2023-11-25T02:25:55.126Z,100873.52
2023-11-25T02:28:23.450Z,100873.52
2023-11-25T02:30:51.827Z,100874.77
2023-11-25T02:33:19.865Z,100878.30
2023-11-25T02:35:50.956Z,100890.43
2023-11-25T02:38:18.942Z,100883.89
2023-11-25T02:40:47.661Z,100888.37
2023-11-25T02:43:15.732Z,100878.23
2023-11-25T02:48:18.356Z,100893.08
2023-11-25T02:50:46.587Z,100888.24
2023-11-25T02:53:14.803Z,100901.62
2023-11-25T02:55:42.788Z,100898.80
2023-11-25T02:58:11.046Z,100903.97
2023-11-25T03:00:39.336Z,100916.46
2023-11-25T03:03:11.929Z,100902.73
2023-11-25T03:05:39.866Z,100913.16
2023-11-25T03:08:08.952Z,100916.36
2023-11-25T03:10:37.851Z,100914.40
2023-11-25T03:13:07.207Z,100912.44
2023-11-25T03:15:35.150Z,100920.65
2023-11-25T03:18:04.346Z,100914.63
2023-11-25T03:20:32.415Z,100936.44
2023-11-25T03:23:00.658Z,100934.48
2023-11-25T03:25:30.308Z,100942.95
2023-11-25T03:27:58.786Z,100940.56
2023-11-25T03:30:28.835Z,100942.95
2023-11-25T03:32:57.101Z,100958.31
2023-11-25T03:35:25.763Z,100977.22
2023-11-25T03:37:53.684Z,100971.98
2023-11-25T03:40:21.650Z,100967.51
2023-11-25T03:42:49.797Z,100970.41
2023-11-25T03:45:18.321Z,100987.71
2023-11-25T03:47:47.334Z,100990.66
2023-11-25T03:50:15.525Z,100991.84
2023-11-25T03:52:44.292Z,100986.99
2023-11-25T03:55:12.497Z,100996.70
2023-11-25T03:57:41.543Z,100997.06
2023-11-25T04:00:17.060Z,100989.87
2023-11-25T04:02:47.051Z,100991.54
2023-11-25T04:05:16.120Z,100980.98
2023-11-25T04:07:44.156Z,100979.34
2023-11-25T04:10:17.771Z,100986.18
2023-11-25T04:12:50.442Z,100990.55
2023-11-25T04:15:23.899Z,100991.38
2023-11-25T04:17:53.401Z,100986.93
2023-11-25T04:20:27.426Z,101000.20
2023-11-25T04:22:56.652Z,101015.09
2023-11-25T04:25:25.200Z,101015.87
2023-11-25T04:27:53.853Z,101017.05
2023-11-25T04:30:21.939Z,101018.29
2023-11-25T04:32:50.327Z,101018.22
2023-11-25T04:35:18.796Z,101018.29
2023-11-25T04:37:47.820Z,101030.81
2023-11-25T04:40:16.683Z,101029.99
2023-11-25T04:42:45.526Z,101040.88
2023-11-25T04:45:22.544Z,101042.55
2023-11-25T04:47:55.615Z,101046.25
2023-11-25T04:50:23.616Z,101048.63
2023-11-25T04:52:52.118Z,101063.97
2023-11-25T04:55:24.311Z,101051.58
2023-11-25T04:57:55.149Z,101058.48
2023-11-25T05:00:24.252Z,101067.01
2023-11-25T05:02:52.220Z,101071.42
2023-11-25T05:05:20.142Z,101077.93
2023-11-25T05:07:48.210Z,101073.87
2023-11-25T05:10:17.381Z,101073.06
2023-11-25T05:12:46.736Z,101070.25
2023-11-25T05:15:14.723Z,101061.35
2023-11-25T05:17:42.948Z,101062.14
2023-11-25T05:20:18.263Z,101064.16
2023-11-25T05:22:46.489Z,101067.80
2023-11-25T05:25:18.033Z,101066.65
2023-11-25T05:27:46.426Z,101069.89
2023-11-25T05:30:15.809Z,101079.63
2023-11-25T05:32:45.241Z,101064.88
2023-11-25T05:35:15.688Z,101066.48
2023-11-25T05:37:46.423Z,101062.53
2023-11-25T05:40:17.093Z,101073.52
2023-11-25T05:42:50.453Z,101080.38
2023-11-25T05:45:20.076Z,101080.09
2023-11-25T05:47:48.031Z,101073.65
2023-11-25T05:50:22.738Z,101088.16
2023-11-25T05:52:51.411Z,101082.91
2023-11-25T05:55:22.206Z,101092.19
2023-11-25T05:57:53.134Z,101087.32
2023-11-25T06:00:22.437Z,101091.34
2023-11-25T06:02:51.924Z,101094.58
2023-11-25T06:05:20.303Z,101098.63
2023-11-25T06:07:51.255Z,101106.64
2023-11-25T06:10:21.397Z,101100.53
2023-11-25T06:12:49.444Z,101099.35
2023-11-25T06:15:18.232Z,101100.07
2023-11-25T06:17:47.722Z,101105.66
2023-11-25T06:20:15.829Z,101099.98
2023-11-25T06:22:43.799Z,101100.34
2023-11-25T06:25:11.860Z,101100.70
2023-11-25T06:27:39.949Z,101105.04
2023-11-25T06:30:08.525Z,101097.03
2023-11-25T06:32:36.623Z,101104.65
2023-11-25T06:35:04.849Z,101098.24
2023-11-25T06:37:32.879Z,101098.30
2023-11-25T06:40:00.811Z,101105.17
2023-11-25T06:42:28.705Z,101097.52
2023-11-25T06:44:56.653Z,101111.19
2023-11-25T06:47:24.988Z,101125.77
2023-11-25T06:49:55.860Z,101120.54
2023-11-25T06:52:23.987Z,101116.06
2023-11-25T06:54:51.901Z,101114.16
2023-11-25T06:57:19.797Z,101117.01
2023-11-25T06:59:47.888Z,101124.70
2023-11-25T07:02:16.102Z,101127.64
2023-11-25T07:04:44.274Z,101116.78
2023-11-25T07:07:16.104Z,101116.48
2023-11-25T07:09:44.201Z,101130.65
2023-11-25T07:12:12.681Z,101131.82
2023-11-25T07:14:40.653Z,101129.01
2023-11-25T07:17:08.762Z,101129.80
2023-11-25T07:19:36.780Z,101143.04
2023-11-25T07:22:06.104Z,101137.35
2023-11-25T07:24:35.241Z,101146.96
2023-11-25T07:27:07.500Z,101142.13
2023-11-25T07:29:35.934Z,101152.62
2023-11-25T07:32:04.666Z,101152.00
2023-11-25T07:34:33.973Z,101163.54
2023-11-25T07:37:02.223Z,101158.54
2023-11-25T07:39:31.884Z,101157.00
2023-11-25T07:42:00.469Z,101167.04
2023-11-25T07:44:29.731Z,101162.53
2023-11-25T07:46:57.658Z,101173.65
2023-11-25T07:49:25.897Z,101183.72
2023-11-25T07:51:53.852Z,101178.95
2023-11-25T07:54:21.839Z,101184.30
2023-11-25T07:56:52.532Z,101184.02
2023-11-25T07:59:20.538Z,101186.01
2023-11-25T08:01:48.650Z,101178.39
2023-11-25T08:04:16.819Z,101179.92
2023-11-25T08:06:44.896Z,101196.86
2023-11-25T08:09:12.908Z,101192.05
2023-11-25T08:11:41.307Z,101188.98
2023-11-25T08:14:09.224Z,101199.12
2023-11-25T08:16:37.406Z,101199.61
2023-11-25T08:19:06.473Z,101200.52
2023-11-25T08:21:34.381Z,101197.71
2023-11-25T08:24:02.893Z,101200.23
2023-11-25T08:26:32.336Z,101206.34
2023-11-25T08:29:05.343Z,101218.12
2023-11-25T08:31:33.609Z,101222.17
2023-11-25T08:34:06.435Z,101214.09
2023-11-25T08:36:34.412Z,101210.40
2023-11-25T08:39:04.136Z,101225.64
2023-11-25T08:41:32.567Z,101227.99
2023-11-25T08:44:01.620Z,101230.31
2023-11-25T08:46:29.884Z,101230.31
2023-11-25T08:48:57.897Z,101229.89
2023-11-25T08:51:26.575Z,101238.06
2023-11-25T08:53:56.550Z,101237.25
2023-11-25T08:56:31.961Z,101245.78
2023-11-25T08:59:06.734Z,101240.59
2023-11-25T09:01:42.018Z,101239.83
2023-11-25T09:04:10.238Z,101245.00
2023-11-25T09:06:42.022Z,101245.78
2023-11-25T09:09:10.125Z,101240.19
2023-11-25T09:11:38.216Z,101237.31
2023-11-25T09:14:18.264Z,101246.21
2023-11-25T09:16:46.496Z,101249.02
2023-11-25T09:19:15.539Z,101241.63
2023-11-25T09:21:43.676Z,101234.27
2023-11-25T09:24:13.881Z,101228.09
2023-11-25T09:26:50.448Z,101238.88
2023-11-25T09:29:18.304Z,101232.77
2023-11-25T09:31:51.836Z,101250.20
2023-11-25T09:34:26.885Z,101246.14
2023-11-25T09:36:54.976Z,101254.55
2023-11-25T09:39:23.018Z,101261.74
2023-11-25T09:41:51.448Z,101248.37
2023-11-25T09:44:20.772Z,101241.83
2023-11-25T09:46:52.606Z,101231.30
2023-11-25T09:49:20.956Z,101235.74
2023-11-25T09:51:50.520Z,101243.72
2023-11-25T09:54:24.512Z,101246.99
2023-11-25T09:56:54.061Z,101241.34
2023-11-25T09:59:22.155Z,101249.02
2023-11-25T10:01:51.331Z,101264.88
2023-11-25T10:04:19.775Z,101261.35
2023-11-25T10:06:51.212Z,101264.59
2023-11-25T10:09:19.213Z,101263.87
2023-11-25T10:11:53.502Z,101253.34
2023-11-25T10:14:21.496Z,101259.84
2023-11-25T10:16:49.518Z,101263.18
2023-11-25T10:19:25.215Z,101257.52
2023-11-25T10:21:54.191Z,101259.48
2023-11-25T10:24:24.175Z,101251.34
2023-11-25T10:26:53.465Z,101239.96
2023-11-25T10:29:22.056Z,101236.66
2023-11-25T10:32:00.209Z,101237.15
2023-11-25T10:34:28.434Z,101226.69
2023-11-25T10:36:58.214Z,101228.23
2023-11-25T10:39:26.836Z,101237.37
2023-11-25T10:41:54.972Z,101227.60
2023-11-25T10:44:23.081Z,101225.25
2023-11-25T10:46:51.861Z,101224.04
2023-11-25T10:49:21.841Z,101224.10
2023-11-25T10:51:54.409Z,101220.54
2023-11-25T10:54:29.371Z,101221.72
2023-11-25T10:56:58.828Z,101213.87
2023-11-25T10:59:29.102Z,101216.71
2023-11-25T11:02:01.932Z,101217.37
2023-11-25T11:04:39.858Z,101217.07
2023-11-25T11:07:11.681Z,101227.08
2023-11-25T11:09:40.877Z,101217.76
2023-11-25T11:12:16.722Z,101223.48
2023-11-25T11:14:57.352Z,101223.84
2023-11-25T11:18:09.313Z,101216.52
2023-11-25T11:20:46.678Z,101215.77
2023-11-25T11:23:19.280Z,101216.94
2023-11-25T11:26:19.285Z,101216.52
2023-11-25T11:29:12.828Z,101211.64
2023-11-25T11:32:02.695Z,101208.15
2023-11-25T11:34:35.423Z,101212.20
2023-11-25T11:37:04.828Z,101211.28
2023-11-25T11:39:40.041Z,101220.08
2023-11-25T11:42:29.986Z,101207.42
2023-11-25T11:45:20.313Z,101196.11
2023-11-25T11:47:58.764Z,101204.61
2023-11-25T11:50:34.460Z,101197.29
2023-11-25T11:53:02.556Z,101192.29
2023-11-25T11:55:41.570Z,101181.59
2023-11-25T11:58:12.178Z,101173.84
2023-11-25T12:01:07.533Z,101180.45
2023-11-25T12:03:38.875Z,101180.28
2023-11-25T12:06:11.245Z,101177.44
2023-11-25T12:08:39.370Z,101179.50
2023-11-25T12:11:07.908Z,101169.23
2023-11-25T12:13:40.948Z,101172.80
2023-11-25T12:16:10.832Z,101171.09
2023-11-25T12:18:39.158Z,101177.18
2023-11-25T12:21:08.038Z,101161.84
2023-11-25T12:23:45.409Z,101164.06
2023-11-25T12:26:25.153Z,101149.80
2023-11-25T12:28:53.223Z,101149.02
2023-11-25T12:31:21.545Z,101157.07
2023-11-25T12:33:50.732Z,101140.42
2023-11-25T12:36:18.957Z,101152.78
2023-11-25T12:38:46.930Z,101146.83
2023-11-25T12:41:17.611Z,101138.27
2023-11-25T12:44:08.789Z,101142.16
2023-11-25T12:46:36.921Z,101145.43
2023-11-25T12:49:24.713Z,101138.59
2023-11-25T12:51:53.871Z,101133.30
2023-11-25T12:54:22.470Z,101130.09
2023-11-25T12:56:54.809Z,101130.88
2023-11-25T12:59:29.387Z,101132.22
2023-11-25T13:02:07.269Z,101127.77
2023-11-25T13:04:36.162Z,101131.43
2023-11-25T13:07:05.174Z,101132.67
2023-11-25T13:09:33.863Z,101141.44
2023-11-25T13:12:01.812Z,101133.10
2023-11-25T13:14:29.803Z,101127.77
2023-11-25T13:16:57.952Z,101126.52
2023-11-25T13:19:26.006Z,101123.62
2023-11-25T13:21:53.908Z,101126.03
2023-11-25T13:24:24.769Z,101132.58
2023-11-25T13:26:52.931Z,101125.67
2023-11-25T13:29:21.660Z,101129.27
2023-11-25T13:31:49.645Z,101140.36
2023-11-25T13:34:17.686Z,101120.15
2023-11-25T13:36:46.687Z,101126.98
2023-11-25T13:39:21.472Z,101125.84
2023-11-25T13:41:49.642Z,101127.08
2023-11-25T13:44:17.666Z,101124.23
2023-11-25T13:46:45.679Z,101116.52
2023-11-25T13:49:14.952Z,101122.99
2023-11-25T13:51:42.990Z,101119.07
2023-11-25T13:54:12.133Z,101111.74
2023-11-25T13:56:40.026Z,101114.13
2023-11-25T13:59:07.998Z,101107.72
2023-11-25T14:01:36.212Z,101107.66
2023-11-25T14:04:05.491Z,101116.09
2023-11-25T14:06:33.488Z,101112.89
2023-11-25T14:09:01.891Z,101104.48
2023-11-25T14:11:30.527Z,101102.00
2023-11-25T14:13:58.780Z,101105.70
2023-11-25T14:16:26.731Z,101110.14
2023-11-25T14:18:54.870Z,101110.21
2023-11-25T14:21:22.764Z,101116.62
2023-11-25T14:23:51.476Z,101119.07
2023-11-25T14:26:19.449Z,101121.55
2023-11-25T14:28:48.459Z,101126.52
2023-11-25T14:31:16.361Z,101120.84
2023-11-25T14:33:44.503Z,101133.06
2023-11-25T14:36:14.555Z,101137.22
2023-11-25T14:38:43.864Z,101141.37
2023-11-25T14:41:11.859Z,101135.02
2023-11-25T14:43:41.034Z,101146.60
2023-11-25T14:46:09.123Z,101145.55
2023-11-25T14:48:37.243Z,101132.34
2023-11-25T14:51:05.376Z,101136.43
2023-11-25T14:53:43.815Z,101132.94
2023-11-25T14:56:12.248Z,101130.25
2023-11-25T14:58:40.322Z,101132.84
2023-11-25T15:01:08.392Z,101122.11
2023-11-25T15:03:44.597Z,101124.56
2023-11-25T15:06:12.602Z,101121.45
2023-11-25T15:08:40.590Z,101129.56
2023-11-25T15:11:09.254Z,101130.35
2023-11-25T15:13:37.248Z,101127.18
2023-11-25T15:16:05.620Z,101126.00
2023-11-25T15:18:34.259Z,101126.85
2023-11-25T15:21:04.626Z,101126.13
2023-11-25T15:23:36.788Z,101125.31
2023-11-25T15:26:06.560Z,101115.67
2023-11-25T15:28:34.494Z,101115.73
2023-11-25T15:31:05.437Z,101118.19
2023-11-25T15:33:33.411Z,101119.37
2023-11-25T15:36:04.523Z,101110.08
2023-11-25T15:38:38.692Z,101123.06
2023-11-25T15:41:13.561Z,101122.63
2023-11-25T15:43:45.918Z,101120.54
2023-11-25T15:46:16.654Z,101121.33
2023-11-25T15:48:46.507Z,101116.55
2023-11-25T15:51:14.487Z,101126.62
2023-11-25T15:53:43.155Z,101135.91
2023-11-25T15:56:14.148Z,101130.68
2023-11-25T15:58:42.211Z,101125.55
2023-11-25T16:01:18.990Z,101129.50
2023-11-25T16:03:46.991Z,101131.63
2023-11-25T16:06:17.900Z,101129.70
2023-11-25T16:08:45.884Z,101139.48
2023-11-25T16:11:16.866Z,101137.12
2023-11-25T16:13:45.913Z,101144.38
2023-11-25T16:16:14.010Z,101147.72
2023-11-25T16:18:42.032Z,101147.75
2023-11-25T16:21:10.016Z,101144.61
2023-11-25T16:23:40.303Z,101136.95
2023-11-25T16:26:15.390Z,101139.84
2023-11-25T16:28:43.364Z,101128.59
2023-11-25T16:31:14.407Z,101143.07
2023-11-25T16:33:42.371Z,101146.77
2023-11-25T16:36:15.385Z,101141.17
2023-11-25T16:38:51.764Z,101146.41
2023-11-25T16:41:25.721Z,101162.20
2023-11-25T16:43:57.263Z,101167.47
2023-11-25T16:46:28.327Z,101152.88
2023-11-25T16:49:08.032Z,101167.43
2023-11-25T16:51:37.211Z,101166.19
2023-11-25T16:54:09.470Z,101160.96
2023-11-25T16:56:37.508Z,101159.72
2023-11-25T16:59:07.493Z,101154.95
2023-11-25T17:01:35.772Z,101158.12
2023-11-25T17:04:04.431Z,101152.85
2023-11-25T17:06:39.242Z,101140.75
2023-11-25T17:09:09.853Z,101157.72
2023-11-25T17:11:37.784Z,101159.72
2023-11-25T17:14:06.163Z,101159.72
2023-11-25T17:16:34.347Z,101157.33
2023-11-25T17:19:02.359Z,101158.51
2023-11-25T17:21:30.401Z,101159.00
2023-11-25T17:24:02.615Z,101173.91
2023-11-25T17:26:30.513Z,101174.73
2023-11-25T17:29:00.971Z,101174.04
2023-11-25T17:31:31.512Z,101182.09
2023-11-25T17:34:00.607Z,101194.18
2023-11-25T17:36:35.366Z,101187.34
2023-11-25T17:39:03.375Z,101203.93
2023-11-25T17:41:33.581Z,101194.28
2023-11-25T17:44:01.646Z,101194.70
2023-11-25T17:46:32.257Z,101198.37
2023-11-25T17:49:00.223Z,101196.47
2023-11-25T17:51:30.432Z,101190.00
2023-11-25T17:54:02.683Z,101185.65
2023-11-25T17:56:36.528Z,101183.26
2023-11-25T17:59:07.140Z,101197.13
2023-11-25T18:01:35.380Z,101188.30
2023-11-25T18:04:03.673Z,101181.92
2023-11-25T18:06:31.659Z,101199.31
2023-11-25T18:09:00.027Z,101185.22
2023-11-25T18:11:28.276Z,101180.05
2023-11-25T18:13:56.347Z,101193.43
2023-11-25T18:16:24.502Z,101175.74
2023-11-25T18:18:53.664Z,101181.04
2023-11-25T18:21:21.622Z,101177.83
2023-11-25T18:23:49.602Z,101181.49
2023-11-25T18:26:18.587Z,101188.79
2023-11-25T18:28:46.545Z,101188.79
2023-11-25T18:31:19.221Z,101192.84
2023-11-25T18:33:47.144Z,101200.92
2023-11-25T18:36:18.724Z,101212.98
2023-11-25T18:38:46.783Z,101200.95
2023-11-25T18:41:15.198Z,101210.99
2023-11-25T18:43:43.224Z,101209.75
2023-11-25T18:46:13.139Z,101203.66
2023-11-25T18:48:44.451Z,101201.24
2023-11-25T18:51:12.430Z,101213.34
2023-11-25T18:53:43.046Z,101216.55
2023-11-25T18:56:11.164Z,101216.13
2023-11-25T18:58:42.363Z,101210.86
2023-11-25T19:01:12.041Z,101218.09
2023-11-25T19:03:39.982Z,101214.06
2023-11-25T19:06:08.420Z,101218.05
2023-11-25T19:08:36.332Z,101226.13
2023-11-25T19:11:04.372Z,101220.48
2023-11-25T19:13:32.359Z,101237.37
2023-11-25T19:16:00.331Z,101221.23
2023-11-25T19:18:28.344Z,101224.82
2023-11-25T19:20:56.682Z,101220.80
2023-11-25T19:23:24.598Z,101222.40
2023-11-25T19:25:52.609Z,101232.08
2023-11-25T19:28:23.025Z,101225.21
2023-11-25T19:30:52.674Z,101226.75
2023-11-25T19:33:20.651Z,101226.75
2023-11-25T19:35:48.767Z,101217.43
2023-11-25T19:38:17.571Z,101214.59
2023-11-25T19:40:48.844Z,101214.59
2023-11-25T19:43:18.620Z,101210.11
2023-11-25T19:45:46.626Z,101215.77
2023-11-25T19:48:15.270Z,101230.25
2023-11-25T19:50:43.374Z,101234.63
2023-11-25T19:53:20.506Z,101237.02
2023-11-25T19:55:48.961Z,101246.27
2023-11-25T19:58:17.392Z,101247.05
2023-11-25T20:00:53.336Z,101259.12
2023-11-25T20:03:26.447Z,101250.66
2023-11-25T20:05:55.750Z,101242.16
2023-11-25T20:08:23.916Z,101244.12
2023-11-25T20:10:52.043Z,101248.92
2023-11-25T20:13:20.645Z,101239.57
2023-11-25T20:15:48.900Z,101237.58
2023-11-25T20:18:17.291Z,101233.09
2023-11-25T20:20:45.457Z,101228.62
2023-11-25T20:23:16.253Z,101231.40
2023-11-25T20:25:46.111Z,101233.42
2023-11-25T20:28:14.504Z,101234.20
2023-11-25T20:30:43.490Z,101237.05
2023-11-25T20:33:12.558Z,101243.49
2023-11-25T20:35:40.513Z,101240.23
2023-11-25T20:38:08.609Z,101252.78
2023-11-25T20:40:38.944Z,101242.28
2023-11-25T20:43:07.379Z,101242.64
2023-11-25T20:45:38.358Z,101237.05
2023-11-25T20:48:07.031Z,101241.47
2023-11-25T20:50:36.354Z,101235.35
2023-11-25T20:53:04.744Z,101240.19
2023-11-25T20:55:32.836Z,101239.77
2023-11-25T20:58:05.058Z,101229.70
2023-11-25T21:00:35.745Z,101241.37
2023-11-25T21:03:04.382Z,101235.32
2023-11-25T21:05:33.780Z,101226.82
2023-11-25T21:08:01.907Z,101218.77
2023-11-25T21:10:30.200Z,101226.42
2023-11-25T21:12:59.548Z,101230.48
2023-11-25T21:15:27.502Z,101228.88
2023-11-25T21:17:59.465Z,101220.87
2023-11-25T21:20:27.459Z,101218.09
2023-11-25T21:22:55.514Z,101221.75
2023-11-25T21:25:24.131Z,101219.72
2023-11-25T21:27:52.317Z,101218.48
2023-11-25T21:30:20.296Z,101216.02
2023-11-25T21:32:48.447Z,101210.76
2023-11-25T21:35:16.733Z,101218.38
2023-11-25T21:37:45.377Z,101208.30
2023-11-25T21:40:20.662Z,101217.20
2023-11-25T21:42:51.910Z,101222.50
2023-11-25T21:45:20.745Z,101222.08
2023-11-25T21:47:51.203Z,101221.26
2023-11-25T21:50:20.203Z,101220.08
2023-11-25T21:52:48.202Z,101213.97
2023-11-25T21:55:16.919Z,101204.68
2023-11-25T21:57:45.562Z,101208.73
2023-11-25T22:00:18.036Z,101199.02
2023-11-25T22:02:46.418Z,101206.77
2023-11-25T22:05:15.822Z,101210.44
2023-11-25T22:07:44.058Z,101217.30
2023-11-25T22:10:24.306Z,101224.95
2023-11-25T22:12:56.087Z,101226.55
2023-11-25T22:15:24.731Z,101232.21
2023-11-25T22:17:53.184Z,101225.31
2023-11-25T22:20:21.244Z,101212.79
2023-11-25T22:22:49.181Z,101222.08
2023-11-25T22:25:26.695Z,101222.86
2023-11-25T22:27:56.247Z,101247.45
2023-11-25T22:30:24.296Z,101242.22
2023-11-25T22:32:52.417Z,101249.87
2023-11-25T22:35:21.211Z,101258.70
2023-11-25T22:37:49.833Z,101257.09
2023-11-25T22:40:18.268Z,101260.30
2023-11-25T22:42:46.463Z,101255.46
2023-11-25T22:45:14.568Z,101261.48
2023-11-25T22:47:42.478Z,101264.72
2023-11-25T22:50:10.975Z,101262.72
2023-11-25T22:52:39.062Z,101253.83
2023-11-25T22:55:07.190Z,101257.42
2023-11-25T22:57:35.200Z,101257.91
2023-11-25T23:00:03.675Z,101262.33
2023-11-25T23:02:31.782Z,101260.76
2023-11-25T23:05:01.504Z,101248.20
2023-11-25T23:07:29.397Z,101248.62
2023-11-25T23:10:08.460Z,101251.44
2023-11-25T23:12:36.604Z,101257.52
2023-11-25T23:15:05.752Z,101259.95
2023-11-25T23:17:33.929Z,101261.55
2023-11-25T23:20:01.822Z,101253.86
2023-11-25T23:22:29.748Z,101251.41
2023-11-25T23:24:57.784Z,101242.94
2023-11-25T23:27:25.775Z,101240.91
2023-11-25T23:29:53.782Z,101245.72
2023-11-25T23:32:21.748Z,101242.88
2023-11-25T23:34:49.736Z,101234.41
2023-11-25T23:37:18.582Z,101238.00
2023-11-25T23:39:47.090Z,101238.82
2023-11-25T23:42:15.262Z,101246.93
2023-11-25T23:44:43.318Z,101241.34
2023-11-25T23:47:11.350Z,101254.25
2023-11-25T23:49:39.391Z,101261.12
2023-11-25T23:52:08.579Z,101257.09
2023-11-25T23:54:39.821Z,101253.86
2023-11-25T23:57:07.800Z,101251.44
2023-11-25T23:59:36.285Z,101263.57
